Weather at Queen Alia International Airport

Public forecast

Using degrees Celsius for public forecast. Weather courtesy of forecast.io.

Current aviation weather report (METAR) for Queen Alia International Airport

Retrieved 2020/09/24 04:00 UTC (32 minutes ago):

OJAI 240400Z 00000KT 2000 BR NSC 15/14 Q1016 NOSIG

Aviation forecast (TAF) for Queen Alia International Airport

Retrieved 2020-09-24 00:15 UTC (4 hours ago):

TAF TAF OJAI 232258Z 2400/2506 00000KT 7000 NSC PROB30 2402/2406 VRB01KT 0900 FG SCT030 BECMG 2406/2408 29012KT 6000 FEW035